Time;durP1;ratioP1;P1;durP2;ratioP2;P2;SDS_P1;SDS_P2;PMS_P1;PMS_P2;Temp;Humidity;BMP_temperature;BMP_pressure;BME280_temperature;BME280_humidity;BME280_pressure;Samples;Min_cycle;Max_cycle;Signal;HPM_P1;HPM_P2
2021/10/06 00:00:39;;;;;;;;;;;14.20;99.90;;;;;;1878271;75;20487;-70
2021/10/06 00:03:06;;;;;;;;;;;14.20;99.90;;;;;;1875238;75;20418;-69
2021/10/06 00:05:32;;;;;;;;;;;14.10;99.90;;;;;;1878079;75;20173;-68
2021/10/06 00:07:59;;;;;;;;;;;14.10;99.90;;;;;;1870983;75;20213;-70
2021/10/06 00:10:27;;;;;;;;;;;14.10;99.90;;;;;;1879385;75;20187;-70
2021/10/06 00:12:53;;;;;;;;;;;14.10;99.90;;;;;;1874259;75;20528;-70
2021/10/06 00:15:20;;;;;;;;;;;14.10;99.90;;;;;;1877775;75;20181;-70
2021/10/06 00:17:47;;;;;;;;;;;14.10;99.90;;;;;;1870842;75;20254;-69
2021/10/06 00:20:14;;;;;;;;;;;14.10;99.90;;;;;;1875358;75;20690;-69
2021/10/06 00:22:42;;;;;;;;;;;14.10;99.90;;;;;;1871846;75;20555;-70
2021/10/06 00:25:08;;;;;;;;;;;14.00;99.90;;;;;;1877477;75;20232;-70
2021/10/06 00:27:35;;;;;;;;;;;14.10;99.90;;;;;;1876830;75;20248;-70
2021/10/06 00:30:02;;;;;;;;;;;14.20;99.90;;;;;;1879923;75;20188;-69
2021/10/06 00:32:29;;;;;;;;;;;14.10;99.90;;;;;;1876630;75;20175;-69
2021/10/06 00:34:56;;;;;;;;;;;14.10;99.90;;;;;;1879969;75;20112;-69
2021/10/06 00:37:23;;;;;;;;;;;14.10;99.90;;;;;;1875751;75;20166;-69
2021/10/06 00:39:49;;;;;;;;;;;14.10;99.90;;;;;;1871859;75;20241;-69
2021/10/06 00:42:16;;;;;;;;;;;14.10;99.90;;;;;;1877161;75;20204;-69
2021/10/06 00:44:43;;;;;;;;;;;14.10;99.90;;;;;;1877182;74;20425;-69
2021/10/06 00:47:11;;;;;;;;;;;14.00;99.90;;;;;;1873497;75;20173;-70
2021/10/06 00:49:38;;;;;;;;;;;14.10;99.90;;;;;;1876804;75;20179;-70
2021/10/06 00:52:04;;;;;;;;;;;14.00;99.90;;;;;;1877307;75;20194;-70
2021/10/06 00:54:31;;;;;;;;;;;14.00;99.90;;;;;;1876442;75;20459;-70
2021/10/06 00:56:58;;;;;;;;;;;14.00;99.90;;;;;;1874551;75;20206;-69
2021/10/06 00:59:25;;;;;;;;;;;13.90;99.90;;;;;;1873399;75;20404;-69
2021/10/06 01:01:52;;;;;;;;;;;13.90;99.90;;;;;;1875200;75;20186;-70
2021/10/06 01:04:19;;;;;;;;;;;13.80;99.90;;;;;;1873781;75;20208;-70
2021/10/06 01:06:46;;;;;;;;;;;13.90;99.90;;;;;;1873831;75;20703;-70
2021/10/06 01:09:12;;;;;;;;;;;13.80;99.90;;;;;;1880221;75;20492;-70
2021/10/06 01:11:39;;;;;;;;;;;13.80;99.90;;;;;;1880228;75;20280;-70
2021/10/06 01:14:07;;;;;;;;;;;13.80;99.90;;;;;;1878523;71;20206;-68
2021/10/06 01:16:34;;;;;;;;;;;13.80;99.90;;;;;;1911998;73;20220;-69
2021/10/06 01:19:01;;;;;;;;;;;13.80;99.90;;;;;;1911228;73;20148;-69
2021/10/06 01:21:28;;;;;;;;;;;13.70;99.90;;;;;;1910780;73;20578;-69
2021/10/06 01:23:54;;;;;;;;;;;13.70;99.90;;;;;;1915502;73;20188;-69
2021/10/06 01:26:21;;;;;;;;;;;13.80;99.90;;;;;;1912588;73;20203;-69
2021/10/06 01:28:49;;;;;;;;;;;13.80;99.90;;;;;;1906227;73;20194;-69
2021/10/06 01:31:16;;;;;;;;;;;13.70;99.90;;;;;;1905772;73;20530;-69
2021/10/06 01:33:43;;;;;;;;;;;13.70;99.90;;;;;;1910600;73;20166;-69
2021/10/06 01:36:10;;;;;;;;;;;13.70;99.90;;;;;;1913442;73;20214;-69
2021/10/06 01:38:37;;;;;;;;;;;13.70;99.90;;;;;;1913746;73;20169;-69
2021/10/06 01:41:04;;;;;;;;;;;13.70;99.90;;;;;;1909724;73;20121;-69
2021/10/06 01:43:31;;;;;;;;;;;13.60;99.90;;;;;;1912593;73;20176;-69
2021/10/06 01:45:57;;;;;;;;;;;13.60;99.90;;;;;;1914736;73;20156;-69
2021/10/06 01:48:25;;;;;;;;;;;13.50;99.90;;;;;;1913724;73;20516;-69
2021/10/06 01:50:51;;;;;;;;;;;13.50;99.90;;;;;;1911343;73;20405;-69
2021/10/06 01:53:18;;;;;;;;;;;13.50;99.90;;;;;;1909177;73;20209;-68
2021/10/06 01:55:45;;;;;;;;;;;13.50;99.90;;;;;;1906381;73;20503;-68
2021/10/06 01:58:13;;;;;;;;;;;13.50;99.90;;;;;;1909477;73;20156;-69
2021/10/06 02:00:42;;;;;;;;;;;13.50;99.90;;;;;;1903448;73;20219;-69
2021/10/06 02:03:08;;;;;;;;;;;13.50;99.90;;;;;;1908352;73;20328;-67
2021/10/06 02:05:35;;;;;;;;;;;13.50;99.90;;;;;;1916919;73;20502;-68
2021/10/06 02:08:03;;;;;;;;;;;13.40;99.90;;;;;;1912392;73;20191;-68
2021/10/06 02:10:30;;;;;;;;;;;13.40;99.90;;;;;;1912186;73;20225;-68
2021/10/06 02:12:57;;;;;;;;;;;13.40;99.90;;;;;;1904738;73;21170;-68
2021/10/06 02:15:25;;;;;;;;;;;13.40;99.90;;;;;;1909062;73;20161;-68
2021/10/06 02:17:52;;;;;;;;;;;13.30;99.90;;;;;;1906934;73;20153;-68
2021/10/06 02:20:19;;;;;;;;;;;13.30;99.90;;;;;;1907692;73;20171;-68
2021/10/06 02:22:46;;;;;;;;;;;13.20;99.90;;;;;;1905211;73;20228;-68
2021/10/06 02:25:13;;;;;;;;;;;13.20;99.90;;;;;;1909779;72;20214;-68
2021/10/06 02:27:40;;;;;;;;;;;13.20;99.90;;;;;;1908207;73;20184;-67
2021/10/06 02:30:07;;;;;;;;;;;13.20;99.90;;;;;;1910239;73;20116;-68
2021/10/06 02:32:34;;;;;;;;;;;13.20;99.90;;;;;;1912814;73;20241;-68
2021/10/06 02:35:01;;;;;;;;;;;13.20;99.90;;;;;;1913672;73;20199;-68
2021/10/06 02:37:28;;;;;;;;;;;13.20;99.90;;;;;;1917563;73;20239;-68
2021/10/06 02:39:55;;;;;;;;;;;13.20;99.90;;;;;;1916310;73;20154;-68
2021/10/06 02:42:22;;;;;;;;;;;13.10;99.90;;;;;;1912844;73;20172;-68
2021/10/06 02:44:49;;;;;;;;;;;13.10;99.90;;;;;;1912068;73;20122;-68
2021/10/06 02:47:16;;;;;;;;;;;13.10;99.90;;;;;;1906517;73;20209;-68
2021/10/06 02:49:43;;;;;;;;;;;13.10;99.90;;;;;;1906299;73;20169;-68
2021/10/06 02:52:09;;;;;;;;;;;13.10;99.90;;;;;;1901043;73;20544;-67
2021/10/06 02:54:36;;;;;;;;;;;13.10;99.90;;;;;;1905294;73;20214;-68
2021/10/06 02:57:04;;;;;;;;;;;13.10;99.90;;;;;;1909436;73;20108;-67
2021/10/06 02:59:31;;;;;;;;;;;13.00;99.90;;;;;;1908144;73;20220;-67
2021/10/06 03:01:58;;;;;;;;;;;13.00;99.90;;;;;;1903986;73;20182;-68
2021/10/06 03:04:25;;;;;;;;;;;13.00;99.90;;;;;;1907861;73;20572;-68
2021/10/06 03:06:52;;;;;;;;;;;13.00;99.90;;;;;;1908462;73;20159;-68
2021/10/06 03:09:19;;;;;;;;;;;13.10;99.90;;;;;;1906610;73;20541;-68
2021/10/06 03:11:46;;;;;;;;;;;13.10;99.90;;;;;;1909245;73;20220;-68
2021/10/06 03:14:13;;;;;;;;;;;13.10;99.90;;;;;;1908359;73;20203;-68
2021/10/06 03:16:40;;;;;;;;;;;13.10;99.90;;;;;;1911192;73;20551;-68
2021/10/06 03:19:06;;;;;;;;;;;13.00;99.90;;;;;;1907301;73;20165;-68
2021/10/06 03:21:33;;;;;;;;;;;13.10;99.90;;;;;;1909204;73;20404;-68
2021/10/06 03:24:00;;;;;;;;;;;13.10;99.90;;;;;;1903739;73;20195;-68
2021/10/06 03:26:27;;;;;;;;;;;13.10;99.90;;;;;;1907671;73;20587;-67
2021/10/06 03:28:54;;;;;;;;;;;13.20;99.90;;;;;;1912854;73;20124;-70
2021/10/06 03:31:20;;;;;;;;;;;13.10;99.90;;;;;;1910746;73;20159;-68
2021/10/06 03:33:47;;;;;;;;;;;13.00;99.90;;;;;;1908480;73;20212;-68
2021/10/06 03:36:14;;;;;;;;;;;13.10;99.90;;;;;;1911013;73;20255;-67
2021/10/06 03:38:41;;;;;;;;;;;13.20;99.90;;;;;;1910776;73;20482;-68
2021/10/06 03:41:08;;;;;;;;;;;13.10;99.90;;;;;;1909701;73;20202;-68
2021/10/06 03:43:34;;;;;;;;;;;13.10;99.90;;;;;;1910146;73;20238;-68
2021/10/06 03:46:01;;;;;;;;;;;13.10;99.90;;;;;;1913278;73;20191;-68
2021/10/06 03:48:28;;;;;;;;;;;13.10;99.90;;;;;;1907755;73;20207;-67
2021/10/06 03:50:55;;;;;;;;;;;13.10;99.90;;;;;;1910765;73;20153;-68
2021/10/06 03:53:22;;;;;;;;;;;13.30;99.90;;;;;;1909853;73;20200;-68
2021/10/06 03:55:48;;;;;;;;;;;13.30;99.90;;;;;;1908394;73;20114;-68
2021/10/06 03:58:16;;;;;;;;;;;13.20;99.90;;;;;;1904675;73;20155;-68
2021/10/06 04:00:44;;;;;;;;;;;13.20;99.90;;;;;;1906719;73;20220;-68
2021/10/06 04:03:11;;;;;;;;;;;13.20;99.90;;;;;;1911264;73;20192;-68
2021/10/06 04:05:38;;;;;;;;;;;13.20;99.90;;;;;;1918130;73;20159;-68
2021/10/06 04:08:06;;;;;;;;;;;13.20;99.90;;;;;;1916764;73;20222;-68
2021/10/06 04:10:33;;;;;;;;;;;13.20;99.90;;;;;;1912431;73;20164;-68
2021/10/06 04:13:00;;;;;;;;;;;13.20;99.90;;;;;;1913841;73;20173;-68
2021/10/06 04:15:27;;;;;;;;;;;13.20;99.90;;;;;;1913652;73;20117;-68
2021/10/06 04:17:54;;;;;;;;;;;13.20;99.90;;;;;;1909909;72;20498;-67
2021/10/06 04:20:21;;;;;;;;;;;13.30;99.90;;;;;;1908077;73;20171;-68
2021/10/06 04:22:48;;;;;;;;;;;13.20;99.90;;;;;;1909528;73;20869;-68
2021/10/06 04:25:14;;;;;;;;;;;13.30;99.90;;;;;;1907604;73;20220;-68
2021/10/06 04:27:41;;;;;;;;;;;13.20;99.90;;;;;;1913007;73;20214;-68
2021/10/06 04:30:09;;;;;;;;;;;13.20;99.90;;;;;;1911143;73;20206;-67
2021/10/06 04:32:36;;;;;;;;;;;13.20;99.90;;;;;;1913954;73;20173;-68
2021/10/06 04:35:03;;;;;;;;;;;13.20;99.90;;;;;;1911735;73;20160;-68
2021/10/06 04:37:30;;;;;;;;;;;13.10;99.90;;;;;;1913190;73;20122;-68
2021/10/06 04:39:57;;;;;;;;;;;13.10;99.90;;;;;;1913159;73;20189;-68
2021/10/06 04:42:23;;;;;;;;;;;13.20;99.90;;;;;;1911987;73;20245;-68
2021/10/06 04:44:50;;;;;;;;;;;13.10;99.90;;;;;;1913688;73;20183;-67
2021/10/06 04:47:17;;;;;;;;;;;13.10;99.90;;;;;;1906151;73;20435;-68
2021/10/06 04:49:44;;;;;;;;;;;13.10;99.90;;;;;;1915494;73;20216;-68
2021/10/06 04:52:11;;;;;;;;;;;13.10;99.90;;;;;;1912040;73;20234;-68
2021/10/06 04:54:37;;;;;;;;;;;13.10;99.90;;;;;;1914049;73;20642;-67
2021/10/06 04:57:04;;;;;;;;;;;13.10;99.90;;;;;;1913816;73;20184;-68
2021/10/06 04:59:31;;;;;;;;;;;13.20;99.90;;;;;;1911502;73;20559;-67
2021/10/06 05:01:59;;;;;;;;;;;13.10;99.90;;;;;;1911034;73;20128;-67
2021/10/06 05:04:29;;;;;;;;;;;13.00;99.90;;;;;;1911554;73;20114;-68
2021/10/06 05:06:56;;;;;;;;;;;13.10;99.90;;;;;;1913467;73;20268;-68
2021/10/06 05:09:24;;;;;;;;;;;13.10;99.90;;;;;;1914028;73;20169;-68
2021/10/06 05:11:50;;;;;;;;;;;13.20;99.90;;;;;;1914022;73;20409;-67
2021/10/06 05:14:17;;;;;;;;;;;13.10;99.90;;;;;;1919885;73;20171;-68
2021/10/06 05:16:44;;;;;;;;;;;13.10;99.90;;;;;;1911764;73;20216;-67
2021/10/06 05:19:12;;;;;;;;;;;13.10;99.90;;;;;;1916293;73;20527;-68
2021/10/06 05:21:40;;;;;;;;;;;13.20;99.90;;;;;;1915114;73;20198;-67
2021/10/06 05:24:07;;;;;;;;;;;13.10;99.90;;;;;;1914314;73;20219;-68
2021/10/06 05:26:33;;;;;;;;;;;13.10;99.90;;;;;;1916964;73;20464;-68
2021/10/06 05:29:00;;;;;;;;;;;13.20;99.90;;;;;;1912676;73;20172;-68
2021/10/06 05:31:46;;;;;;;;;;;13.20;99.90;;;;;;1912321;74;20161;-68
2021/10/06 05:34:13;;;;;;;;;;;13.20;99.90;;;;;;1926753;73;20214;-68
2021/10/06 05:36:40;;;;;;;;;;;13.20;99.90;;;;;;1921343;73;20454;-68
2021/10/06 05:39:07;;;;;;;;;;;13.20;99.90;;;;;;1912266;73;20129;-68
2021/10/06 05:41:34;;;;;;;;;;;13.20;99.90;;;;;;1910393;74;20210;-68
2021/10/06 05:44:00;;;;;;;;;;;13.10;99.90;;;;;;1918203;73;20203;-68
2021/10/06 05:46:27;;;;;;;;;;;13.10;99.90;;;;;;1922889;73;20129;-68
2021/10/06 05:48:54;;;;;;;;;;;13.20;99.90;;;;;;1928370;73;20185;-68
2021/10/06 05:51:21;;;;;;;;;;;13.10;99.90;;;;;;1913491;73;20159;-68
2021/10/06 05:53:48;;;;;;;;;;;13.10;99.90;;;;;;1910577;74;20154;-68
2021/10/06 05:56:15;;;;;;;;;;;13.10;99.90;;;;;;1910605;74;20482;-67
2021/10/06 05:58:41;;;;;;;;;;;13.00;99.90;;;;;;1915844;73;20249;-67
2021/10/06 06:01:09;;;;;;;;;;;13.00;99.90;;;;;;1908727;73;20472;-67
2021/10/06 06:03:35;;;;;;;;;;;13.00;99.90;;;;;;1912813;73;20435;-68
2021/10/06 06:06:02;;;;;;;;;;;13.00;99.90;;;;;;1910826;73;20189;-68
2021/10/06 06:08:29;;;;;;;;;;;12.90;99.90;;;;;;1909299;74;20156;-68
2021/10/06 06:10:56;;;;;;;;;;;13.00;99.90;;;;;;1908823;74;21048;-68
2021/10/06 06:13:23;;;;;;;;;;;13.00;99.90;;;;;;1910834;74;20213;-68
2021/10/06 06:15:52;;;;;;;;;;;12.90;99.90;;;;;;1903163;74;20216;-68
2021/10/06 06:18:18;;;;;;;;;;;12.90;99.90;;;;;;1904928;74;20113;-68
2021/10/06 06:20:45;;;;;;;;;;;12.80;99.90;;;;;;1907455;74;20248;-68
2021/10/06 06:23:13;;;;;;;;;;;12.90;99.90;;;;;;1912036;73;20250;-68
2021/10/06 06:25:39;;;;;;;;;;;12.90;99.90;;;;;;1907080;73;20188;-68
2021/10/06 06:28:06;;;;;;;;;;;12.90;99.90;;;;;;1911305;74;20159;-68
2021/10/06 06:30:33;;;;;;;;;;;12.90;99.90;;;;;;1909957;73;20484;-68
2021/10/06 06:33:00;;;;;;;;;;;13.00;99.90;;;;;;1906846;73;20222;-68
2021/10/06 06:35:27;;;;;;;;;;;12.90;99.90;;;;;;1907950;74;20575;-68
2021/10/06 06:37:53;;;;;;;;;;;13.00;99.90;;;;;;1911408;74;20183;-68
2021/10/06 06:40:20;;;;;;;;;;;13.00;99.90;;;;;;1910182;73;20155;-68
2021/10/06 06:42:48;;;;;;;;;;;13.10;99.90;;;;;;1910623;73;20250;-67
2021/10/06 06:45:15;;;;;;;;;;;13.10;99.90;;;;;;1910825;74;20150;-68
2021/10/06 06:47:41;;;;;;;;;;;13.20;99.90;;;;;;1909525;74;20173;-68
2021/10/06 06:50:09;;;;;;;;;;;13.10;99.90;;;;;;1908468;73;20158;-68
2021/10/06 06:52:36;;;;;;;;;;;13.10;99.90;;;;;;1911022;74;20199;-68
2021/10/06 06:55:03;;;;;;;;;;;13.20;99.90;;;;;;1907375;74;20131;-69
2021/10/06 06:57:30;;;;;;;;;;;13.10;99.90;;;;;;1906085;74;20182;-68
2021/10/06 06:59:57;;;;;;;;;;;13.20;99.90;;;;;;1909040;74;20158;-68
2021/10/06 07:02:24;;;;;;;;;;;13.10;99.90;;;;;;1905652;73;20177;-68
2021/10/06 07:04:51;;;;;;;;;;;13.10;99.90;;;;;;1905865;74;20126;-68
2021/10/06 07:07:18;;;;;;;;;;;13.10;99.90;;;;;;1910206;73;20254;-68
2021/10/06 07:09:48;;;;;;;;;;;13.10;99.90;;;;;;1908740;74;20124;-68
2021/10/06 07:12:19;;;;;;;;;;;13.20;99.90;;;;;;1909257;73;20222;-68
2021/10/06 07:14:46;;;;;;;;;;;13.20;99.90;;;;;;1907005;74;20156;-69
2021/10/06 07:17:13;;;;;;;;;;;13.20;99.90;;;;;;1912296;74;20121;-68
2021/10/06 07:19:40;;;;;;;;;;;13.30;99.90;;;;;;1909352;74;20217;-69
2021/10/06 07:22:07;;;;;;;;;;;13.30;99.90;;;;;;1913516;73;20190;-69
2021/10/06 07:24:34;;;;;;;;;;;13.30;99.90;;;;;;1908228;74;20576;-68
2021/10/06 07:27:01;;;;;;;;;;;13.40;99.90;;;;;;1910674;73;20462;-68
2021/10/06 07:29:28;;;;;;;;;;;13.30;99.90;;;;;;1906643;74;20274;-68
2021/10/06 07:31:55;;;;;;;;;;;13.40;99.90;;;;;;1906316;73;20164;-68
2021/10/06 07:34:22;;;;;;;;;;;13.40;99.90;;;;;;1903007;74;20399;-68
2021/10/06 07:36:49;;;;;;;;;;;13.30;99.90;;;;;;1905416;74;20257;-68
2021/10/06 07:39:16;;;;;;;;;;;13.40;99.90;;;;;;1908913;74;20158;-68
2021/10/06 07:41:43;;;;;;;;;;;13.40;99.90;;;;;;1911541;73;20163;-68
2021/10/06 07:44:10;;;;;;;;;;;13.40;99.90;;;;;;1909436;71;20176;-71
2021/10/06 07:46:37;;;;;;;;;;;13.40;99.90;;;;;;1911622;73;20505;-71
2021/10/06 07:49:04;;;;;;;;;;;13.40;99.90;;;;;;1914989;73;20186;-71
2021/10/06 07:51:31;;;;;;;;;;;13.40;99.90;;;;;;1911845;73;20230;-71
2021/10/06 07:53:58;;;;;;;;;;;13.40;99.90;;;;;;1911729;73;20522;-72
2021/10/06 07:56:24;;;;;;;;;;;13.50;99.90;;;;;;1913727;73;20203;-70
2021/10/06 07:58:51;;;;;;;;;;;13.50;99.90;;;;;;1911761;73;20207;-71
2021/10/06 08:01:18;;;;;;;;;;;13.60;99.90;;;;;;1911470;73;20126;-71
2021/10/06 08:03:45;;;;;;;;;;;13.60;99.90;;;;;;1908432;73;20221;-71
2021/10/06 08:06:12;;;;;;;;;;;13.50;99.90;;;;;;1915493;73;20213;-71
2021/10/06 08:08:38;;;;;;;;;;;13.60;99.90;;;;;;1911306;73;20250;-72
2021/10/06 08:11:05;;;;;;;;;;;13.60;99.90;;;;;;1912040;73;20260;-71
2021/10/06 08:13:32;;;;;;;;;;;13.60;99.90;;;;;;1908149;73;20254;-71
2021/10/06 08:15:59;;;;;;;;;;;13.60;99.90;;;;;;1908807;73;20129;-70
2021/10/06 08:18:26;;;;;;;;;;;13.70;99.90;;;;;;1912530;73;20203;-71
2021/10/06 08:20:53;;;;;;;;;;;13.70;99.90;;;;;;1907229;73;20423;-71
2021/10/06 08:23:21;;;;;;;;;;;13.70;99.90;;;;;;1905568;73;20179;-70
2021/10/06 08:25:49;;;;;;;;;;;13.70;99.90;;;;;;1911414;73;20178;-70
2021/10/06 08:28:15;;;;;;;;;;;13.70;99.90;;;;;;1909423;73;20484;-70
2021/10/06 08:30:42;;;;;;;;;;;13.70;99.90;;;;;;1911188;73;20172;-70
2021/10/06 08:33:09;;;;;;;;;;;13.70;99.90;;;;;;1912220;73;20211;-70
2021/10/06 08:35:41;;;;;;;;;;;13.80;99.90;;;;;;1912203;73;20390;-71
2021/10/06 08:38:06;;;;;;;;;;;13.80;99.90;;;;;;1905939;73;20132;-70
2021/10/06 08:40:33;;;;;;;;;;;13.80;99.90;;;;;;1910255;73;20195;-70
2021/10/06 08:43:01;;;;;;;;;;;13.80;99.90;;;;;;1906352;73;20226;-71
2021/10/06 08:45:28;;;;;;;;;;;13.80;99.90;;;;;;1907185;73;20163;-72
2021/10/06 08:47:56;;;;;;;;;;;13.80;99.90;;;;;;1907695;73;20222;-71
2021/10/06 08:50:23;;;;;;;;;;;13.80;99.90;;;;;;1907296;73;20226;-71
2021/10/06 08:52:51;;;;;;;;;;;13.80;99.90;;;;;;1907698;73;20151;-70
2021/10/06 08:55:18;;;;;;;;;;;13.80;99.90;;;;;;1913975;73;20197;-70
2021/10/06 08:57:45;;;;;;;;;;;13.70;99.90;;;;;;1910876;73;20175;-70
2021/10/06 09:00:12;;;;;;;;;;;13.70;99.90;;;;;;1910465;73;20183;-70
2021/10/06 09:02:41;;;;;;;;;;;13.70;99.90;;;;;;1910450;73;20171;-71
2021/10/06 09:05:08;;;;;;;;;;;13.80;99.90;;;;;;1911851;73;20429;-71
2021/10/06 09:07:37;;;;;;;;;;;13.70;99.90;;;;;;1912920;73;20440;-70
2021/10/06 09:10:14;;;;;;;;;;;13.70;99.90;;;;;;1899821;73;20211;-71
2021/10/06 09:12:43;;;;;;;;;;;13.70;99.90;;;;;;1911505;73;20173;-71
2021/10/06 09:15:10;;;;;;;;;;;13.80;99.90;;;;;;1911360;73;20175;-71
2021/10/06 09:17:38;;;;;;;;;;;13.80;99.90;;;;;;1914241;73;20246;-69
2021/10/06 09:20:07;;;;;;;;;;;13.80;99.90;;;;;;1912622;73;20157;-71
2021/10/06 09:22:33;;;;;;;;;;;13.80;99.90;;;;;;1913612;73;20166;-70
2021/10/06 09:25:05;;;;;;;;;;;13.80;99.90;;;;;;1915051;73;20183;-71
2021/10/06 09:27:33;;;;;;;;;;;13.80;99.90;;;;;;1912680;73;20458;-71
2021/10/06 09:30:02;;;;;;;;;;;13.80;99.90;;;;;;1915369;73;20156;-70
2021/10/06 09:32:30;;;;;;;;;;;13.80;99.90;;;;;;1910898;73;20125;-71
2021/10/06 09:35:07;;;;;;;;;;;13.80;99.90;;;;;;1913601;73;20884;-70
2021/10/06 09:37:36;;;;;;;;;;;13.80;99.90;;;;;;1908475;73;20232;-71
2021/10/06 09:40:03;;;;;;;;;;;13.80;99.90;;;;;;1909900;73;20118;-71
2021/10/06 09:42:31;;;;;;;;;;;13.90;99.90;;;;;;1910930;73;20176;-71
2021/10/06 09:44:58;;;;;;;;;;;13.90;99.90;;;;;;1905327;73;20487;-71
2021/10/06 09:47:25;;;;;;;;;;;14.00;99.90;;;;;;1906202;73;20858;-70
2021/10/06 09:49:56;;;;;;;;;;;14.00;99.90;;;;;;1909699;73;20493;-71
2021/10/06 09:52:24;;;;;;;;;;;14.00;99.90;;;;;;1908153;73;20167;-70
2021/10/06 09:54:53;;;;;;;;;;;14.00;99.90;;;;;;1910118;73;20207;-70
2021/10/06 09:57:30;;;;;;;;;;;14.00;99.90;;;;;;1911036;73;20497;-71
2021/10/06 09:59:58;;;;;;;;;;;14.00;99.90;;;;;;1912410;73;20153;-71
2021/10/06 10:02:26;;;;;;;;;;;14.00;99.90;;;;;;1908950;73;20204;-71
2021/10/06 10:04:56;;;;;;;;;;;14.00;99.90;;;;;;1909789;72;20151;-71
2021/10/06 10:07:23;;;;;;;;;;;13.90;99.90;;;;;;1913126;73;20201;-71
2021/10/06 10:09:50;;;;;;;;;;;13.90;99.90;;;;;;1910234;73;20822;-70
2021/10/06 10:12:18;;;;;;;;;;;13.90;99.90;;;;;;1909405;74;20160;-70
2021/10/06 10:14:46;;;;;;;;;;;13.90;99.90;;;;;;1908515;73;20176;-70
2021/10/06 10:17:13;;;;;;;;;;;13.80;99.90;;;;;;1910685;73;20228;-70
2021/10/06 10:19:40;;;;;;;;;;;13.70;99.90;;;;;;1910423;73;20175;-70
2021/10/06 10:22:07;;;;;;;;;;;13.70;99.90;;;;;;1912212;73;20734;-70
2021/10/06 10:24:35;;;;;;;;;;;13.80;99.90;;;;;;1909705;73;20497;-70
2021/10/06 10:27:04;;;;;;;;;;;13.80;99.90;;;;;;1905243;73;20148;-71
2021/10/06 10:29:38;;;;;;;;;;;13.90;99.90;;;;;;1911664;73;20627;-70
2021/10/06 10:32:07;;;;;;;;;;;14.00;99.90;;;;;;1912757;73;20207;-70
2021/10/06 10:34:52;;;;;;;;;;;14.10;99.90;;;;;;1910599;73;20434;-71
2021/10/06 10:37:18;;;;;;;;;;;14.30;99.90;;;;;;1912274;73;20169;-70
2021/10/06 10:39:50;;;;;;;;;;;14.60;99.90;;;;;;1907387;73;20155;-70
2021/10/06 10:42:17;;;;;;;;;;;14.80;99.90;;;;;;1910921;73;20495;-70
2021/10/06 10:44:46;;;;;;;;;;;14.80;99.90;;;;;;1909529;73;20179;-70
2021/10/06 10:47:12;;;;;;;;;;;15.00;99.90;;;;;;1912043;73;20207;-71
2021/10/06 10:49:43;;;;;;;;;;;15.00;99.90;;;;;;1907702;73;20207;-71
2021/10/06 10:52:10;;;;;;;;;;;15.10;99.90;;;;;;1905306;73;20176;-70
2021/10/06 10:54:43;;;;;;;;;;;15.30;99.90;;;;;;1911399;73;20169;-71
2021/10/06 10:57:21;;;;;;;;;;;15.50;99.90;;;;;;1910582;73;20488;-70
2021/10/06 10:59:49;;;;;;;;;;;15.50;99.90;;;;;;1911467;73;20222;-71
2021/10/06 11:02:17;;;;;;;;;;;15.50;99.90;;;;;;1908520;73;20106;-71
2021/10/06 11:04:48;;;;;;;;;;;15.60;99.90;;;;;;1910863;73;20208;-70
2021/10/06 11:07:19;;;;;;;;;;;15.80;99.90;;;;;;1908708;73;20204;-71
2021/10/06 11:09:47;;;;;;;;;;;15.70;99.90;;;;;;1906992;73;20576;-70
2021/10/06 11:12:18;;;;;;;;;;;15.50;99.90;;;;;;1906534;73;20162;-71
2021/10/06 11:14:45;;;;;;;;;;;15.30;99.90;;;;;;1910512;73;20173;-71
2021/10/06 11:17:15;;;;;;;;;;;15.30;99.90;;;;;;1910306;73;20161;-71
2021/10/06 11:19:45;;;;;;;;;;;15.10;99.90;;;;;;1912046;73;20208;-70
2021/10/06 11:22:25;;;;;;;;;;;15.10;99.90;;;;;;1911379;73;20260;-70
2021/10/06 11:25:03;;;;;;;;;;;14.90;99.90;;;;;;1909419;73;20662;-71
2021/10/06 11:27:31;;;;;;;;;;;14.90;99.90;;;;;;1910103;73;20398;-71
2021/10/06 11:29:58;;;;;;;;;;;14.90;99.90;;;;;;1907418;73;20714;-70
2021/10/06 11:32:25;;;;;;;;;;;14.80;99.90;;;;;;1911851;73;20133;-70
2021/10/06 11:34:53;;;;;;;;;;;14.80;99.90;;;;;;1908504;73;20345;-70
2021/10/06 11:37:24;;;;;;;;;;;14.80;99.90;;;;;;1910454;73;20117;-69
2021/10/06 11:39:54;;;;;;;;;;;14.80;99.90;;;;;;1909025;73;20489;-71
2021/10/06 11:42:22;;;;;;;;;;;14.80;99.90;;;;;;1911725;73;20182;-70
2021/10/06 11:44:51;;;;;;;;;;;14.70;99.90;;;;;;1907838;73;20411;-71
2021/10/06 11:47:18;;;;;;;;;;;14.70;99.90;;;;;;1911469;73;20212;-71
2021/10/06 11:49:48;;;;;;;;;;;14.60;99.90;;;;;;1909454;73;20183;-72
2021/10/06 11:52:17;;;;;;;;;;;14.70;99.90;;;;;;1911706;73;20177;-71
2021/10/06 11:54:45;;;;;;;;;;;14.50;99.90;;;;;;1911432;73;20541;-71
2021/10/06 11:57:17;;;;;;;;;;;14.50;99.90;;;;;;1909057;73;21140;-71
2021/10/06 11:59:44;;;;;;;;;;;14.40;99.90;;;;;;1909831;73;20114;-71
2021/10/06 12:02:12;;;;;;;;;;;14.40;99.90;;;;;;1911032;73;20499;-71
2021/10/06 12:04:39;;;;;;;;;;;14.50;99.90;;;;;;1911194;73;20570;-71
2021/10/06 12:07:08;;;;;;;;;;;14.40;99.90;;;;;;1910582;73;20947;-70
2021/10/06 12:09:35;;;;;;;;;;;14.40;99.90;;;;;;1913293;73;20173;-71
2021/10/06 12:12:04;;;;;;;;;;;14.40;99.90;;;;;;1913616;73;20143;-71
2021/10/06 12:14:33;;;;;;;;;;;14.40;99.90;;;;;;1908493;73;20149;-71
2021/10/06 12:17:04;;;;;;;;;;;14.30;99.90;;;;;;1914828;73;20537;-71
2021/10/06 12:19:31;;;;;;;;;;;14.20;99.90;;;;;;1907299;73;20184;-70
2021/10/06 12:21:58;;;;;;;;;;;14.20;99.90;;;;;;1910337;73;20219;-71
2021/10/06 12:24:26;;;;;;;;;;;14.20;99.90;;;;;;1905471;73;20191;-70
2021/10/06 12:26:54;;;;;;;;;;;14.20;99.90;;;;;;1905967;73;20493;-71
2021/10/06 12:29:22;;;;;;;;;;;14.20;99.90;;;;;;1906081;73;20552;-70
2021/10/06 12:31:50;;;;;;;;;;;14.20;99.90;;;;;;1909640;73;20236;-69
2021/10/06 12:34:18;;;;;;;;;;;14.10;99.90;;;;;;1908289;73;20202;-71
2021/10/06 12:36:46;;;;;;;;;;;14.20;99.90;;;;;;1910244;73;20461;-70
2021/10/06 12:39:15;;;;;;;;;;;14.20;99.90;;;;;;1911868;73;20204;-71
2021/10/06 12:41:42;;;;;;;;;;;14.20;99.90;;;;;;1907510;73;20216;-71
2021/10/06 12:44:17;;;;;;;;;;;14.30;99.90;;;;;;1908070;73;20216;-71
2021/10/06 12:46:44;;;;;;;;;;;14.40;99.90;;;;;;1909592;73;20481;-71
2021/10/06 12:49:11;;;;;;;;;;;14.40;99.90;;;;;;1911914;73;20144;-71
2021/10/06 12:51:39;;;;;;;;;;;14.40;99.90;;;;;;1909912;73;20458;-71
2021/10/06 12:54:14;;;;;;;;;;;14.40;99.90;;;;;;1908678;73;20527;-71
2021/10/06 12:56:40;;;;;;;;;;;14.40;99.90;;;;;;1913501;73;20504;-70
2021/10/06 12:59:09;;;;;;;;;;;14.40;99.90;;;;;;1913261;73;20379;-70
2021/10/06 13:01:36;;;;;;;;;;;14.40;99.90;;;;;;1910726;73;20485;-69
2021/10/06 13:04:06;;;;;;;;;;;14.40;99.90;;;;;;1907418;73;20141;-70
2021/10/06 13:06:33;;;;;;;;;;;14.40;99.90;;;;;;1911221;73;20167;-68
2021/10/06 13:09:04;;;;;;;;;;;14.40;99.90;;;;;;1908697;73;20115;-70
2021/10/06 13:11:31;;;;;;;;;;;14.40;99.90;;;;;;1911055;73;20207;-70
2021/10/06 13:13:58;;;;;;;;;;;14.40;99.90;;;;;;1913325;73;20187;-71
2021/10/06 13:16:25;;;;;;;;;;;14.40;99.90;;;;;;1910045;73;20173;-71
2021/10/06 13:18:54;;;;;;;;;;;14.40;99.90;;;;;;1912384;73;20191;-71
2021/10/06 13:21:20;;;;;;;;;;;14.50;99.90;;;;;;1912208;73;20590;-70
2021/10/06 13:23:48;;;;;;;;;;;14.60;99.90;;;;;;1910129;73;20219;-71
2021/10/06 13:26:14;;;;;;;;;;;14.60;99.90;;;;;;1910860;73;20238;-70
2021/10/06 13:28:42;;;;;;;;;;;14.60;99.90;;;;;;1914846;73;20180;-71
2021/10/06 13:31:10;;;;;;;;;;;14.70;99.90;;;;;;1913623;73;20181;-70
2021/10/06 13:33:37;;;;;;;;;;;14.80;99.90;;;;;;1912418;73;20176;-70
2021/10/06 13:36:12;;;;;;;;;;;14.80;99.90;;;;;;1911941;73;20218;-71
2021/10/06 13:38:36;;;;;;;;;;;14.70;99.90;;;;;;1906728;73;20211;-70
2021/10/06 13:41:03;;;;;;;;;;;14.70;99.90;;;;;;1910816;73;20236;-70
2021/10/06 13:43:31;;;;;;;;;;;14.60;99.90;;;;;;1907899;73;20131;-71
2021/10/06 13:45:59;;;;;;;;;;;14.60;99.90;;;;;;1909720;71;20206;-72
2021/10/06 13:48:25;;;;;;;;;;;14.50;99.90;;;;;;1906998;73;20504;-71
2021/10/06 13:50:53;;;;;;;;;;;14.40;99.90;;;;;;1909345;73;20179;-71
2021/10/06 13:53:20;;;;;;;;;;;14.40;99.90;;;;;;1913400;73;20203;-72
2021/10/06 13:55:47;;;;;;;;;;;14.40;99.90;;;;;;1909692;73;20227;-70
2021/10/06 13:58:14;;;;;;;;;;;14.30;99.90;;;;;;1913665;73;20243;-70
2021/10/06 14:00:40;;;;;;;;;;;14.30;99.90;;;;;;1911553;73;20398;-71
2021/10/06 14:03:07;;;;;;;;;;;14.40;99.90;;;;;;1909638;73;20211;-71
2021/10/06 14:05:34;;;;;;;;;;;14.40;99.90;;;;;;1910062;73;20525;-70
2021/10/06 14:08:01;;;;;;;;;;;14.30;99.90;;;;;;1910781;73;20646;-71
2021/10/06 14:10:28;;;;;;;;;;;14.30;99.90;;;;;;1910475;73;20191;-71
2021/10/06 14:12:55;;;;;;;;;;;14.30;99.90;;;;;;1913677;73;20461;-70
2021/10/06 14:15:22;;;;;;;;;;;14.40;99.90;;;;;;1909713;73;20228;-71
2021/10/06 14:17:52;;;;;;;;;;;14.40;99.90;;;;;;1912862;73;20164;-71